createdAt,value
2018-03-02T00:03:44.672Z,1001.8
2018-03-02T00:13:59.666Z,1001.6
2018-03-02T00:24:11.872Z,1001.7
2018-03-02T00:34:24.417Z,1001.5
2018-03-02T00:44:42.824Z,1001.4
2018-03-02T00:55:28.868Z,1001.3
2018-03-02T01:06:17.848Z,1001.1
2018-03-02T01:16:31.533Z,1001.1
2018-03-02T01:27:18.880Z,1001.1
2018-03-02T01:37:33.005Z,1000.7
2018-03-02T01:47:46.942Z,1000.7
2018-03-02T01:57:58.923Z,1000.6
2018-03-02T02:08:13.455Z,1000.5
2018-03-02T02:18:32.017Z,1000.3
2018-03-02T02:28:49.245Z,1000.4
2018-03-02T02:49:52.168Z,1000.3
2018-03-02T03:00:44.172Z,1000.2
2018-03-02T03:11:42.634Z,1000.0
2018-03-02T03:22:04.696Z,1000.0
2018-03-02T03:32:28.689Z,999.9
2018-03-02T03:42:43.653Z,999.7
2018-03-02T03:52:58.114Z,999.7
2018-03-02T04:03:49.147Z,999.8
2018-03-02T04:14:15.007Z,999.6
2018-03-02T04:25:00.658Z,999.5
2018-03-02T04:35:46.628Z,999.5
2018-03-02T04:46:32.118Z,999.5
2018-03-02T04:56:45.173Z,999.4
2018-03-02T05:06:58.549Z,999.5
2018-03-02T05:17:43.761Z,999.4
2018-03-02T05:27:55.702Z,999.3
2018-03-02T05:38:10.853Z,999.2
2018-03-02T05:48:56.291Z,999.1
2018-03-02T06:00:05.606Z,999.0
2018-03-02T06:10:17.618Z,999.0
2018-03-02T06:20:32.106Z,998.8
2018-03-02T06:30:56.148Z,999.0
2018-03-02T06:41:10.215Z,999.0
2018-03-02T06:51:55.980Z,998.8
2018-03-02T07:02:41.360Z,998.6
2018-03-02T07:13:26.158Z,998.5
2018-03-02T07:24:10.680Z,998.6
2018-03-02T07:36:03.605Z,998.7
2018-03-02T07:46:17.208Z,998.4
2018-03-02T07:56:31.497Z,998.5
2018-03-02T08:06:45.949Z,998.3
2018-03-02T08:17:31.980Z,998.3
2018-03-02T08:27:45.956Z,998.1
2018-03-02T08:38:00.331Z,998.1
2018-03-02T08:48:40.913Z,998.1
2018-03-02T08:59:16.306Z,997.9
2018-03-02T09:09:30.903Z,997.7
2018-03-02T09:20:55.119Z,997.7
2018-03-02T09:34:11.906Z,997.7
2018-03-02T09:44:48.291Z,997.6
2018-03-02T09:55:32.223Z,997.4
2018-03-02T10:06:03.356Z,997.5
2018-03-02T10:16:29.260Z,997.4
2018-03-02T10:26:53.760Z,997.2
2018-03-02T10:37:17.970Z,996.9
2018-03-02T10:48:53.110Z,997.0
2018-03-02T10:59:21.990Z,996.8
2018-03-02T11:10:01.228Z,996.5
2018-03-02T11:20:15.618Z,996.5
2018-03-02T11:30:50.927Z,996.3
2018-03-02T11:41:16.300Z,996.2
2018-03-02T12:12:38.714Z,996.1
2018-03-02T12:22:56.538Z,996.1
2018-03-02T12:33:20.014Z,995.9
2018-03-02T12:43:44.573Z,995.9
2018-03-02T12:55:02.194Z,995.9
2018-03-02T13:05:26.648Z,995.9
2018-03-02T13:16:37.242Z,996.0
2018-03-02T13:28:30.437Z,995.7
2018-03-02T13:39:17.730Z,996.0
2018-03-02T13:49:51.566Z,996.1
2018-03-02T14:01:41.114Z,995.8
2018-03-02T14:23:58.211Z,995.5
2018-03-02T14:53:29.757Z,995.0
2018-03-02T15:26:48.994Z,994.7
2018-03-02T16:35:23.935Z,995.1
2018-03-02T16:45:43.401Z,995.0
2018-03-02T17:00:10.947Z,995.3
2018-03-02T17:57:52.167Z,995.8
2018-03-02T18:09:24.065Z,995.9
2018-03-02T18:19:54.388Z,995.9
2018-03-02T18:30:59.740Z,996.1
2018-03-02T18:42:41.569Z,996.2
2018-03-02T18:53:20.497Z,996.4
2018-03-02T19:16:34.286Z,996.6
2018-03-02T20:10:27.719Z,996.5
2018-03-02T20:52:43.251Z,996.6
2018-03-02T21:19:41.328Z,996.6
2018-03-02T21:29:56.378Z,996.5
2018-03-02T21:40:11.374Z,996.6
2018-03-02T21:50:27.424Z,996.6
2018-03-02T22:00:41.930Z,996.5
2018-03-02T22:10:54.330Z,996.6
2018-03-02T22:21:08.331Z,996.6
2018-03-02T22:31:22.520Z,996.5
2018-03-02T22:41:36.925Z,996.5
2018-03-02T22:52:14.378Z,996.5
2018-03-02T23:02:28.584Z,996.6
2018-03-02T23:12:42.285Z,996.4
2018-03-02T23:22:56.602Z,996.5
2018-03-02T23:33:11.145Z,996.5
2018-03-02T23:43:23.512Z,996.4
2018-03-02T23:53:37.171Z,996.3
